createdAt,value
2022-11-24T00:01:45.741Z,45.58
2022-11-24T00:04:12.555Z,44.20
2022-11-24T00:06:39.415Z,41.00
2022-11-24T00:09:06.901Z,43.40
2022-11-24T00:11:35.863Z,43.70
2022-11-24T00:14:04.763Z,41.97
2022-11-24T00:16:34.696Z,45.33
2022-11-24T00:19:03.063Z,42.28
2022-11-24T00:24:18.811Z,44.38
2022-11-24T00:26:45.625Z,40.63
2022-11-24T00:29:12.431Z,50.13
2022-11-24T00:31:41.871Z,46.40
2022-11-24T00:36:59.554Z,41.78
2022-11-24T00:39:26.719Z,42.85
2022-11-24T00:41:53.575Z,45.33
2022-11-24T00:44:20.403Z,42.40
2022-11-24T00:46:47.336Z,47.33
2022-11-24T00:49:14.359Z,43.15
2022-11-24T00:51:41.167Z,44.97
2022-11-24T00:54:08.076Z,44.45
2022-11-24T00:56:34.870Z,46.00
2022-11-24T00:59:01.705Z,47.47
2022-11-24T01:01:29.873Z,43.67
2022-11-24T01:03:58.351Z,44.80
2022-11-24T01:06:27.507Z,45.55
2022-11-24T01:08:55.805Z,46.25
2022-11-24T01:11:23.934Z,46.92
2022-11-24T01:13:57.969Z,48.28
2022-11-24T01:19:21.034Z,44.00
2022-11-24T01:24:34.724Z,41.22
2022-11-24T01:29:28.473Z,42.65
2022-11-24T01:31:55.273Z,47.17
2022-11-24T01:37:08.875Z,41.05
2022-11-24T01:39:35.669Z,40.05
2022-11-24T01:42:02.527Z,44.22
2022-11-24T01:44:30.831Z,44.67
2022-11-24T01:47:18.756Z,36.75
2022-11-24T01:49:49.040Z,41.17
2022-11-24T01:55:21.765Z,39.45
2022-11-24T01:57:54.815Z,38.05
2022-11-24T02:00:21.955Z,41.83
2022-11-24T02:05:44.294Z,40.30
2022-11-24T02:08:20.712Z,41.35
2022-11-24T02:10:48.456Z,38.90
2022-11-24T02:13:16.084Z,38.03
2022-11-24T02:15:43.279Z,37.63
2022-11-24T02:18:10.345Z,38.67
2022-11-24T02:20:37.225Z,36.80
2022-11-24T02:23:20.522Z,38.17
2022-11-24T02:26:05.584Z,37.92
2022-11-24T02:28:32.659Z,42.38
2022-11-24T02:31:00.993Z,38.28
2022-11-24T02:33:28.200Z,37.97
2022-11-24T02:35:55.099Z,37.58
2022-11-24T02:38:33.096Z,37.33
2022-11-24T02:41:07.484Z,37.30
2022-11-24T02:43:48.527Z,37.25
2022-11-24T02:46:15.417Z,38.00
2022-11-24T02:48:42.334Z,36.72
2022-11-24T02:51:09.123Z,37.93
2022-11-24T02:53:35.953Z,37.28
2022-11-24T02:56:02.762Z,40.90
2022-11-24T02:58:29.571Z,37.25
2022-11-24T03:00:56.473Z,34.75
2022-11-24T03:03:23.697Z,38.78
2022-11-24T03:05:50.678Z,34.15
2022-11-24T03:08:17.636Z,36.50
2022-11-24T03:10:44.848Z,35.75
2022-11-24T03:13:11.731Z,36.42
2022-11-24T03:15:38.703Z,36.83
2022-11-24T03:18:05.848Z,39.40
2022-11-24T03:20:32.941Z,38.05
2022-11-24T03:22:59.739Z,37.88
2022-11-24T03:25:26.598Z,35.50
2022-11-24T03:27:53.392Z,40.13
2022-11-24T03:30:20.301Z,39.00
2022-11-24T03:32:47.089Z,38.63
2022-11-24T03:35:13.867Z,39.40
2022-11-24T03:37:40.664Z,36.47
2022-11-24T03:40:07.845Z,37.50
2022-11-24T03:42:34.657Z,37.17
2022-11-24T03:45:16.607Z,41.15
2022-11-24T03:47:51.467Z,39.40
2022-11-24T03:50:18.398Z,37.40
2022-11-24T03:52:45.205Z,35.95
2022-11-24T03:55:11.999Z,39.28
2022-11-24T03:57:38.804Z,35.20
2022-11-24T04:00:06.058Z,40.60
2022-11-24T04:02:32.997Z,35.33
2022-11-24T04:04:59.830Z,44.58
2022-11-24T04:07:26.754Z,38.05
2022-11-24T04:09:53.619Z,37.63
2022-11-24T04:15:07.541Z,38.75
2022-11-24T04:20:21.121Z,40.63
2022-11-24T04:25:37.108Z,41.95
2022-11-24T04:30:50.928Z,38.42
2022-11-24T04:36:04.830Z,40.95
2022-11-24T04:39:23.767Z,39.60
2022-11-24T04:39:32.267Z,0
2022-11-24T04:41:18.499Z,40.83
2022-11-24T04:46:32.054Z,40.25
2022-11-24T04:48:58.933Z,39.47
2022-11-24T04:51:25.712Z,39.20
2022-11-24T04:53:52.539Z,42.97
2022-11-24T04:56:19.345Z,40.22
2022-11-24T04:58:49.029Z,41.13
2022-11-24T05:01:15.954Z,41.20
2022-11-24T05:03:42.882Z,46.80
2022-11-24T05:06:09.743Z,38.90
2022-11-24T05:08:36.477Z,40.58
2022-11-24T05:13:54.367Z,38.65
2022-11-24T05:16:21.208Z,38.28
2022-11-24T05:18:48.008Z,40.47
2022-11-24T05:21:14.888Z,41.58
2022-11-24T05:23:41.685Z,41.72
2022-11-24T05:26:08.723Z,41.63
2022-11-24T05:28:35.489Z,39.90
2022-11-24T05:31:03.000Z,40.85
2022-11-24T05:33:30.829Z,40.85
2022-11-24T05:36:01.334Z,42.85
2022-11-24T05:38:28.189Z,38.95
2022-11-24T05:40:54.908Z,43.65
2022-11-24T05:42:50.077Z,0
2022-11-24T05:43:21.634Z,40.40
2022-11-24T05:45:48.402Z,40.38
2022-11-24T05:48:15.565Z,42.38
2022-11-24T05:50:42.601Z,41.92
2022-11-24T05:53:12.838Z,39.83
2022-11-24T05:55:40.476Z,37.93
2022-11-24T05:58:08.800Z,38.83
2022-11-24T06:00:36.748Z,38.30
2022-11-24T06:03:04.176Z,40.50
2022-11-24T06:05:31.223Z,38.38
2022-11-24T06:07:59.832Z,35.90
2022-11-24T06:10:26.828Z,37.22
2022-11-24T06:12:53.758Z,34.08
2022-11-24T06:15:20.897Z,35.73
2022-11-24T06:17:55.392Z,38.77
2022-11-24T06:20:25.145Z,42.10
2022-11-24T06:21:13.926Z,0
2022-11-24T06:22:58.135Z,36.65
2022-11-24T06:28:11.710Z,39.17
2022-11-24T06:30:38.431Z,36.33
2022-11-24T06:33:05.183Z,37.40
2022-11-24T06:35:31.913Z,37.70
2022-11-24T06:37:58.662Z,37.97
2022-11-24T06:40:25.412Z,35.97
2022-11-24T06:42:52.272Z,35.67
2022-11-24T06:45:19.079Z,38.03
2022-11-24T06:47:45.858Z,33.85
2022-11-24T06:50:12.600Z,34.33
2022-11-24T06:52:39.867Z,34.42
2022-11-24T06:55:07.255Z,36.28
2022-11-24T06:57:34.082Z,34.65
2022-11-24T07:00:00.908Z,35.15
2022-11-24T07:02:27.675Z,36.97
2022-11-24T07:04:54.383Z,35.65
2022-11-24T07:07:21.246Z,32.05
2022-11-24T07:09:48.038Z,32.50
2022-11-24T07:12:14.807Z,32.63
2022-11-24T07:14:41.590Z,32.72
2022-11-24T07:17:08.396Z,31.60
2022-11-24T07:19:35.148Z,32.35
2022-11-24T07:22:01.925Z,30.83
2022-11-24T07:24:28.697Z,34.58
2022-11-24T07:26:55.492Z,35.58
2022-11-24T07:29:22.254Z,30.35
2022-11-24T07:31:49.036Z,31.52
2022-11-24T07:34:15.815Z,34.85
2022-11-24T07:36:42.859Z,33.17
2022-11-24T07:41:57.856Z,29.88
2022-11-24T07:43:22.791Z,0
2022-11-24T07:44:24.594Z,31.75
2022-11-24T07:46:51.745Z,29.67
2022-11-24T07:49:19.414Z,32.08
2022-11-24T07:50:56.523Z,0
2022-11-24T07:51:46.181Z,30.57
2022-11-24T07:56:59.647Z,32.20
2022-11-24T08:02:13.643Z,31.20
2022-11-24T08:06:48.421Z,0
2022-11-24T08:07:07.174Z,28.42
2022-11-24T08:09:34.169Z,29.23
2022-11-24T08:12:00.910Z,32.45
2022-11-24T08:14:27.717Z,33.85
2022-11-24T08:16:54.560Z,36.57
2022-11-24T08:19:22.350Z,28.30
2022-11-24T08:21:49.159Z,27.50
2022-11-24T08:24:16.093Z,28.13
2022-11-24T08:26:43.588Z,30.92
2022-11-24T08:29:10.704Z,31.98
2022-11-24T08:31:39.178Z,28.50
2022-11-24T08:34:06.441Z,29.27
2022-11-24T08:36:34.256Z,29.73
2022-11-24T08:39:01.053Z,30.33
2022-11-24T08:41:28.878Z,28.90
2022-11-24T08:43:55.813Z,26.42
2022-11-24T08:46:22.945Z,28.02
2022-11-24T08:48:52.490Z,29.23
2022-11-24T08:51:22.625Z,28.87
2022-11-24T08:53:49.430Z,30.20
2022-11-24T08:56:16.239Z,28.60
2022-11-24T08:58:43.071Z,26.23
2022-11-24T09:01:17.874Z,28.02
2022-11-24T09:03:51.366Z,25.15
2022-11-24T09:06:20.371Z,29.15
2022-11-24T09:08:47.098Z,26.07
2022-11-24T09:11:15.415Z,25.05
2022-11-24T09:13:42.739Z,30.25
2022-11-24T09:16:18.695Z,27.13
2022-11-24T09:21:34.203Z,25.98
2022-11-24T09:26:48.053Z,24.58
2022-11-24T09:31:45.147Z,23.73
2022-11-24T09:34:15.927Z,24.35
2022-11-24T09:39:29.797Z,23.70
2022-11-24T09:42:08.325Z,25.85
2022-11-24T09:44:44.050Z,22.45
2022-11-24T09:47:37.296Z,27.17
2022-11-24T09:50:18.366Z,24.13
2022-11-24T09:52:49.231Z,24.80
2022-11-24T09:55:34.799Z,25.95
2022-11-24T09:58:44.462Z,22.38
2022-11-24T10:01:19.391Z,23.58
2022-11-24T10:03:51.708Z,26.13
2022-11-24T10:06:24.013Z,23.08
2022-11-24T10:12:33.722Z,23.10
2022-11-24T10:15:18.631Z,23.20
2022-11-24T10:18:23.026Z,22.73
2022-11-24T10:21:12.848Z,22.75
2022-11-24T10:24:02.944Z,22.40
2022-11-24T10:26:37.143Z,21.35
2022-11-24T10:29:18.711Z,21.58
2022-11-24T10:31:46.771Z,21.47
2022-11-24T10:34:41.442Z,23.90
2022-11-24T10:37:10.936Z,19.55
2022-11-24T10:39:57.115Z,21.85
2022-11-24T10:42:29.390Z,20.73
2022-11-24T10:45:08.864Z,20.00
2022-11-24T10:47:35.650Z,22.48
2022-11-24T10:50:22.611Z,20.77
2022-11-24T10:52:58.174Z,20.35
2022-11-24T10:55:24.921Z,20.50
2022-11-24T10:57:51.696Z,25.92
2022-11-24T11:00:21.394Z,23.30
2022-11-24T11:02:49.972Z,22.13
2022-11-24T11:08:21.205Z,19.50
2022-11-24T11:11:11.711Z,20.92
2022-11-24T11:13:38.516Z,23.70
2022-11-24T11:16:23.835Z,20.40
2022-11-24T11:18:50.805Z,21.85
2022-11-24T11:20:03.835Z,0
2022-11-24T11:21:33.568Z,20.05
2022-11-24T11:24:02.240Z,19.92
2022-11-24T11:26:36.065Z,22.55
2022-11-24T11:31:23.760Z,0
2022-11-24T11:34:29.939Z,0
2022-11-24T11:35:02.781Z,21.02
2022-11-24T11:37:32.364Z,19.92
2022-11-24T11:39:59.424Z,24.67
2022-11-24T11:45:24.777Z,21.35
2022-11-24T11:48:02.516Z,21.45
2022-11-24T11:51:21.658Z,20.50
2022-11-24T11:54:07.088Z,19.58
2022-11-24T12:00:16.386Z,20.20
2022-11-24T12:02:55.752Z,20.17
2022-11-24T12:05:59.185Z,20.45
2022-11-24T12:09:18.725Z,20.45
2022-11-24T12:09:22.750Z,0
2022-11-24T12:11:53.173Z,20.50
2022-11-24T12:21:06.328Z,21.45
2022-11-24T12:23:47.806Z,17.57
2022-11-24T12:26:32.588Z,21.63
2022-11-24T12:29:26.898Z,22.27
2022-11-24T12:31:56.422Z,21.37
2022-11-24T12:34:02.935Z,0
2022-11-24T12:34:44.082Z,20.27
2022-11-24T12:37:25.256Z,23.60
2022-11-24T12:40:14.767Z,21.85
2022-11-24T12:41:56.194Z,0
2022-11-24T12:42:57.947Z,19.58
2022-11-24T12:45:43.246Z,19.75
2022-11-24T12:48:41.892Z,20.30
2022-11-24T12:51:17.716Z,19.42
2022-11-24T12:56:41.581Z,19.08
2022-11-24T12:59:39.845Z,19.77
2022-11-24T13:02:21.668Z,20.83
2022-11-24T13:07:57.188Z,23.73
2022-11-24T13:11:07.639Z,0
2022-11-24T13:13:27.997Z,20.40
2022-11-24T13:16:34.787Z,22.95
2022-11-24T13:18:44.283Z,19.40
2022-11-24T13:21:36.828Z,18.13
2022-11-24T13:24:06.846Z,18.10
2022-11-24T13:26:42.676Z,18.30
2022-11-24T13:29:26.534Z,0
2022-11-24T13:29:27.586Z,21.98
2022-11-24T13:31:55.885Z,20.05
2022-11-24T13:34:41.027Z,20.08
2022-11-24T13:37:31.592Z,18.67
2022-11-24T13:40:11.747Z,24.02
2022-11-24T13:41:31.346Z,0
2022-11-24T13:42:46.126Z,0
2022-11-24T13:42:58.855Z,19.17
2022-11-24T13:45:41.202Z,21.17
2022-11-24T13:47:09.192Z,0
2022-11-24T13:48:20.650Z,20.83
2022-11-24T13:50:50.830Z,21.50
2022-11-24T13:53:24.755Z,17.63
2022-11-24T13:56:05.816Z,21.58
2022-11-24T13:58:37.779Z,18.48
2022-11-24T14:01:21.726Z,19.17
2022-11-24T14:02:04.417Z,0
2022-11-24T14:04:41.011Z,0
2022-11-24T14:07:07.869Z,18.73
2022-11-24T14:09:48.059Z,19.30
2022-11-24T14:12:25.533Z,21.88
2022-11-24T14:14:54.306Z,22.58
2022-11-24T14:17:21.986Z,21.40
2022-11-24T14:19:54.439Z,25.27
2022-11-24T14:22:41.185Z,20.98
2022-11-24T14:25:22.938Z,19.77
2022-11-24T14:27:49.793Z,20.27
2022-11-24T14:30:22.365Z,21.38
2022-11-24T14:33:00.460Z,19.23
2022-11-24T14:38:15.670Z,19.15
2022-11-24T14:43:32.705Z,19.67
2022-11-24T14:46:09.907Z,22.15
2022-11-24T14:48:48.256Z,21.98
2022-11-24T14:51:28.091Z,21.13
2022-11-24T14:53:58.765Z,21.45
2022-11-24T14:58:44.381Z,0
2022-11-24T14:58:59.985Z,25.10
2022-11-24T15:01:26.783Z,21.10
2022-11-24T15:04:13.022Z,0
2022-11-24T15:10:33.657Z,23.03
2022-11-24T15:13:03.226Z,27.10
2022-11-24T15:15:36.222Z,24.80
2022-11-24T15:20:52.518Z,24.55
2022-11-24T15:23:33.336Z,27.27
2022-11-24T15:26:20.308Z,26.35
2022-11-24T15:26:43.743Z,0
2022-11-24T15:28:47.102Z,23.70
2022-11-24T15:31:14.796Z,25.30
2022-11-24T15:33:42.204Z,25.70
2022-11-24T15:36:09.029Z,27.58
2022-11-24T15:38:35.801Z,21.83
2022-11-24T15:41:05.432Z,27.55
2022-11-24T15:43:35.006Z,27.73
2022-11-24T15:46:03.501Z,30.53
2022-11-24T15:48:30.747Z,24.70
2022-11-24T15:50:59.310Z,24.88
2022-11-24T15:53:29.951Z,22.10
2022-11-24T15:55:57.111Z,24.70
2022-11-24T16:01:10.852Z,24.90
2022-11-24T16:03:52.955Z,29.52
2022-11-24T16:06:25.368Z,24.75
2022-11-24T16:08:53.798Z,22.67
2022-11-24T16:14:07.702Z,27.60
2022-11-24T16:19:21.404Z,26.58
2022-11-24T16:21:48.895Z,24.88
2022-11-24T16:24:15.730Z,25.13
2022-11-24T16:26:42.496Z,26.15
2022-11-24T16:29:09.292Z,29.92
2022-11-24T16:31:36.158Z,22.98
2022-11-24T16:34:03.232Z,23.60
2022-11-24T16:36:30.074Z,25.00
2022-11-24T16:38:56.903Z,27.60
2022-11-24T16:41:23.624Z,29.67
2022-11-24T16:43:50.359Z,26.40
2022-11-24T16:46:22.318Z,27.02
2022-11-24T16:48:54.172Z,27.60
2022-11-24T16:51:22.980Z,26.10
2022-11-24T16:53:57.557Z,26.95
2022-11-24T16:56:24.491Z,26.95
2022-11-24T16:58:51.234Z,27.83
2022-11-24T17:01:18.029Z,31.83
2022-11-24T17:03:44.826Z,27.83
2022-11-24T17:06:15.026Z,24.38
2022-11-24T17:08:42.951Z,26.98
2022-11-24T17:11:21.161Z,27.92
2022-11-24T17:13:48.480Z,25.55
2022-11-24T17:15:55.177Z,0
2022-11-24T17:16:19.466Z,29.23
2022-11-24T17:18:32.528Z,0
2022-11-24T17:18:46.708Z,27.77
2022-11-24T17:21:18.186Z,28.98
2022-11-24T17:23:45.526Z,28.30
2022-11-24T17:26:15.300Z,29.25
2022-11-24T17:28:42.427Z,27.92
2022-11-24T17:34:05.200Z,28.67
2022-11-24T17:39:24.491Z,28.70
2022-11-24T17:41:51.775Z,28.67
2022-11-24T17:44:18.498Z,33.33
2022-11-24T17:46:45.224Z,32.63
2022-11-24T17:51:58.644Z,34.47
2022-11-24T17:54:45.477Z,35.65
2022-11-24T17:54:51.063Z,0
2022-11-24T17:57:12.063Z,31.85
2022-11-24T17:59:38.834Z,31.40
2022-11-24T18:02:05.656Z,34.70
2022-11-24T18:04:32.457Z,37.88
2022-11-24T18:06:59.203Z,33.47
2022-11-24T18:09:25.973Z,34.08
2022-11-24T18:11:52.729Z,37.37
2022-11-24T18:14:04.719Z,0
2022-11-24T18:14:19.486Z,35.40
2022-11-24T18:16:46.335Z,33.53
2022-11-24T18:19:13.140Z,35.07
2022-11-24T18:21:41.306Z,36.05
2022-11-24T18:23:08.059Z,0
2022-11-24T18:24:09.809Z,34.60
2022-11-24T18:26:36.694Z,42.00
2022-11-24T18:29:04.091Z,45.45
2022-11-24T18:31:31.048Z,43.23
2022-11-24T18:33:57.909Z,38.83
2022-11-24T18:36:30.002Z,39.78
2022-11-24T18:41:45.421Z,43.37
2022-11-24T18:46:58.925Z,48.95
2022-11-24T18:52:12.316Z,57.35
2022-11-24T18:54:39.076Z,64.72
2022-11-24T18:57:05.793Z,95.65
2022-11-24T18:59:32.537Z,87.67
2022-11-24T19:01:59.401Z,118.90
2022-11-24T19:04:26.283Z,110.07
2022-11-24T19:06:53.035Z,81.55
2022-11-24T19:09:19.819Z,103.68
2022-11-24T19:11:47.639Z,110.10
2022-11-24T19:14:17.895Z,140.17
2022-11-24T19:16:45.465Z,103.72
2022-11-24T19:19:12.512Z,70.60
2022-11-24T19:21:40.670Z,47.55
2022-11-24T19:24:09.018Z,40.83
2022-11-24T19:26:36.305Z,54.50
2022-11-24T19:29:04.350Z,54.28
2022-11-24T19:31:31.331Z,85.88
2022-11-24T19:33:58.277Z,58.35
2022-11-24T19:36:25.097Z,88.35
2022-11-24T19:41:40.969Z,92.63
2022-11-24T19:46:58.568Z,74.13
2022-11-24T19:49:25.313Z,96.63
2022-11-24T19:51:53.456Z,69.40
2022-11-24T19:54:20.165Z,65.85
2022-11-24T19:56:47.012Z,61.20
2022-11-24T19:59:14.294Z,61.13
2022-11-24T20:01:41.161Z,71.45
2022-11-24T20:04:12.271Z,90.65
2022-11-24T20:06:42.017Z,68.13
2022-11-24T20:09:10.784Z,83.85
2022-11-24T20:14:24.347Z,101.40
2022-11-24T20:19:37.769Z,101.65
2022-11-24T20:22:04.526Z,93.07
2022-11-24T20:24:31.232Z,92.63
2022-11-24T20:26:58.741Z,98.72
2022-11-24T20:29:25.693Z,86.03
2022-11-24T20:31:54.762Z,75.03
2022-11-24T20:34:24.019Z,82.23
2022-11-24T20:39:37.501Z,105.28
2022-11-24T20:41:10.779Z,0
2022-11-24T20:42:04.454Z,53.10
2022-11-24T20:44:31.286Z,69.97
2022-11-24T20:46:58.504Z,55.85
2022-11-24T20:49:26.198Z,53.78
2022-11-24T20:51:52.991Z,51.63
2022-11-24T20:54:19.958Z,61.90
2022-11-24T20:56:47.260Z,60.67
2022-11-24T20:59:20.143Z,60.90
2022-11-24T21:01:48.145Z,76.00
2022-11-24T21:04:19.028Z,71.75
2022-11-24T21:06:45.895Z,100.30
2022-11-24T21:09:12.736Z,86.90
2022-11-24T21:11:40.300Z,49.17
2022-11-24T21:14:08.128Z,69.47
2022-11-24T21:16:37.159Z,71.68
2022-11-24T21:21:59.745Z,49.17
2022-11-24T21:27:13.166Z,47.72
2022-11-24T21:32:26.593Z,88.47
2022-11-24T21:34:53.382Z,65.97
2022-11-24T21:37:20.159Z,98.37
2022-11-24T21:39:46.963Z,64.75
2022-11-24T21:42:13.827Z,113.75
2022-11-24T21:44:40.634Z,47.13
2022-11-24T21:47:07.368Z,45.60
2022-11-24T21:49:34.170Z,87.65
2022-11-24T21:52:00.902Z,54.07
2022-11-24T21:54:27.678Z,43.08
2022-11-24T21:56:54.428Z,49.40
2022-11-24T21:59:21.240Z,38.55
2022-11-24T22:01:48.060Z,64.38
2022-11-24T22:04:14.886Z,59.42
2022-11-24T22:06:41.600Z,43.50
2022-11-24T22:09:09.216Z,46.50
2022-11-24T22:11:38.096Z,43.00
2022-11-24T22:14:04.846Z,55.92
2022-11-24T22:16:31.847Z,50.67
2022-11-24T22:19:00.119Z,42.22
2022-11-24T22:21:26.901Z,49.47
2022-11-24T22:23:53.663Z,48.93
2022-11-24T22:26:22.255Z,47.95
2022-11-24T22:28:49.618Z,75.30
2022-11-24T22:31:18.961Z,55.97
2022-11-24T22:33:46.506Z,45.42
2022-11-24T22:36:14.808Z,49.27
2022-11-24T22:38:42.642Z,68.28
2022-11-24T22:41:12.037Z,49.80
2022-11-24T22:43:40.444Z,39.00
2022-11-24T22:46:08.446Z,54.55
2022-11-24T22:48:35.570Z,45.22
2022-11-24T22:51:11.359Z,42.67
2022-11-24T22:53:39.025Z,76.60
2022-11-24T22:58:55.270Z,74.22
2022-11-24T23:04:11.620Z,31.95
2022-11-24T23:09:25.235Z,52.50
2022-11-24T23:11:52.068Z,41.20
2022-11-24T23:14:18.965Z,36.15
2022-11-24T23:16:45.756Z,34.35
2022-11-24T23:21:59.444Z,37.30
2022-11-24T23:24:26.308Z,30.88
2022-11-24T23:26:53.099Z,33.33
2022-11-24T23:29:19.980Z,35.88
2022-11-24T23:31:46.775Z,25.10
2022-11-24T23:34:13.625Z,38.33
2022-11-24T23:36:40.419Z,44.22
2022-11-24T23:39:09.137Z,51.03
2022-11-24T23:41:36.483Z,60.60
2022-11-24T23:44:03.811Z,36.77
2022-11-24T23:46:30.989Z,65.88
2022-11-24T23:48:57.903Z,63.90
2022-11-24T23:51:28.463Z,47.50
2022-11-24T23:56:42.795Z,44.53
2022-11-24T23:59:10.911Z,60.50
